Time;durP1;ratioP1;P1;durP2;ratioP2;P2;SDS_P1;SDS_P2;PMS_P1;PMS_P2;Temp;Humidity;BMP_temperature;BMP_pressure;BME280_temperature;BME280_humidity;BME280_pressure;Samples;Min_cycle;Max_cycle;Signal;HPM_P1;HPM_P2
2024/01/04 00:02:06;;;;;;;2.70;1.07;;;8.60;99.90;;;;;;5085475;28;20476;-80
2024/01/04 00:05:02;;;;;;;3.03;1.37;;;8.60;99.90;;;;;;5085135;28;20476;-78
2024/01/04 00:07:54;;;;;;;2.10;0.87;;;8.50;99.90;;;;;;5086758;28;20475;-79
2024/01/04 00:10:30;;;;;;;3.53;1.33;;;8.20;99.90;;;;;;5086916;28;20449;-79
2024/01/04 00:13:21;;;;;;;3.30;0.93;;;8.20;99.90;;;;;;5087024;28;20475;-80
2024/01/04 00:16:28;;;;;;;1.53;1.00;;;8.40;99.90;;;;;;5087779;28;20530;-79
2024/01/04 00:19:05;;;;;;;3.47;0.90;;;8.40;99.90;;;;;;5087601;28;20462;-79
2024/01/04 00:21:41;;;;;;;2.77;1.30;;;8.50;99.90;;;;;;5087728;28;20503;-80
2024/01/04 00:24:34;;;;;;;1.47;1.10;;;8.40;99.90;;;;;;5086633;28;20454;-80
2024/01/04 00:27:27;;;;;;;2.00;1.10;;;8.30;99.90;;;;;;5079808;28;20476;-79
2024/01/04 00:30:09;;;;;;;3.57;1.53;;;8.10;99.90;;;;;;5089704;28;20445;-78
2024/01/04 00:32:43;;;;;;;2.17;1.43;;;8.30;99.90;;;;;;5089104;28;20503;-78
2024/01/04 00:35:34;;;;;;;2.30;1.13;;;8.30;99.90;;;;;;5087029;28;20460;-79
2024/01/04 00:38:14;;;;;;;2.13;1.43;;;8.40;99.90;;;;;;5081089;28;20469;-78
2024/01/04 00:41:00;;;;;;;5.23;1.33;;;8.20;99.90;;;;;;5088573;28;20448;-78
2024/01/04 00:43:38;;;;;;;1.70;0.80;;;8.00;99.90;;;;;;5089415;28;20528;-79
2024/01/04 00:46:13;;;;;;;2.27;1.10;;;8.20;99.90;;;;;;5089540;28;20479;-79
2024/01/04 00:48:53;;;;;;;3.73;1.30;;;8.20;99.90;;;;;;5089074;28;20506;-79
2024/01/04 00:51:29;;;;;;;2.10;1.00;;;8.20;99.90;;;;;;5089160;28;20479;-79
2024/01/04 00:54:12;;;;;;;2.07;0.80;;;7.90;99.90;;;;;;5088834;28;20471;-80
2024/01/04 00:57:10;;;;;;;4.10;1.70;;;8.20;99.90;;;;;;5088616;28;20451;-80
2024/01/04 00:59:45;;;;;;;2.47;1.20;;;7.90;99.90;;;;;;5087075;28;20446;-79
2024/01/04 01:02:58;;;;;;;3.83;1.03;;;8.30;99.90;;;;;;5083502;28;20468;-79
2024/01/04 01:05:39;;;;;;;1.60;1.10;;;8.20;99.90;;;;;;5091792;28;20543;-78
2024/01/04 01:08:24;;;;;;;1.80;1.30;;;8.10;99.90;;;;;;5101775;28;20564;-78
2024/01/04 01:10:59;;;;;;;2.57;0.83;;;8.10;99.90;;;;;;5085777;28;20472;-78
2024/01/04 01:13:36;;;;;;;2.20;1.27;;;8.00;99.90;;;;;;5099954;28;20523;-78
2024/01/04 01:16:17;;;;;;;1.40;1.17;;;8.00;99.90;;;;;;5100193;28;20454;-79
2024/01/04 01:19:07;;;;;;;1.40;1.30;;;8.00;99.90;;;;;;5100453;28;20458;-79
2024/01/04 01:21:48;;;;;;;2.33;0.90;;;7.90;99.90;;;;;;5101309;28;20489;-78
2024/01/04 01:24:26;;;;;;;1.03;1.00;;;7.90;99.90;;;;;;5101655;28;20458;-78
2024/01/04 01:27:02;;;;;;;2.40;1.30;;;7.90;99.90;;;;;;5100633;28;20481;-79
2024/01/04 01:29:42;;;;;;;2.57;1.17;;;7.90;99.90;;;;;;5100697;28;20482;-79
2024/01/04 01:32:18;;;;;;;3.80;1.20;;;7.90;99.90;;;;;;5102239;28;20487;-80
2024/01/04 01:35:03;;;;;;;1.33;1.23;;;7.90;99.90;;;;;;5096811;28;20448;-79
2024/01/04 01:37:38;;;;;;;2.30;1.33;;;7.90;99.90;;;;;;5096879;28;20472;-79
2024/01/04 01:43:27;;;;;;;2.50;1.20;;;7.80;99.90;;;;;;5094948;28;20483;-78
2024/01/04 01:46:20;;;;;;;1.23;1.13;;;7.50;99.90;;;;;;5096511;28;20499;-80
2024/01/04 01:48:55;;;;;;;1.87;0.87;;;7.80;99.90;;;;;;5096069;28;20448;-81
2024/01/04 01:51:29;;;;;;;1.30;0.80;;;7.80;99.90;;;;;;5096047;28;20463;-80
2024/01/04 01:54:16;;;;;;;1.90;0.90;;;7.80;99.90;;;;;;5096455;28;20464;-80
2024/01/04 01:57:20;;;;;;;;;;;;;;;;;;;;;
2024/01/04 02:00:11;;;;;;;1.50;1.40;;;7.60;99.90;;;;;;5096956;28;20448;-78
2024/01/04 02:03:30;;;;;;;0.60;0.60;;;7.70;99.90;;;;;;5095976;28;21059;-78
2024/01/04 02:06:14;;;;;;;0.73;0.73;;;7.70;99.90;;;;;;5081982;28;20528;-78
2024/01/04 02:09:10;;;;;;;0.70;0.70;;;7.60;99.90;;;;;;5077035;28;20455;-78
2024/01/04 02:12:06;;;;;;;0.60;0.60;;;7.80;99.90;;;;;;5077719;28;20475;-78
2024/01/04 02:14:56;;;;;;;0.63;0.60;;;7.60;99.90;;;;;;5079062;28;20449;-78
2024/01/04 02:17:33;;;;;;;0.57;0.57;;;7.60;99.90;;;;;;5078294;28;20448;-77
2024/01/04 02:20:31;;;;;;;0.60;0.60;;;7.60;99.90;;;;;;5078662;28;20465;-78
2024/01/04 02:23:22;;;;;;;0.73;0.67;;;7.80;99.90;;;;;;5078050;28;20515;-79
2024/01/04 02:25:57;;;;;;;1.10;0.60;;;7.50;99.90;;;;;;5079088;28;20452;-79
2024/01/04 02:28:38;;;;;;;0.70;0.70;;;7.80;99.90;;;;;;5079401;28;20485;-80
2024/01/04 02:31:12;;;;;;;0.80;0.80;;;7.50;99.90;;;;;;5080490;28;20469;-79
2024/01/04 02:33:56;;;;;;;0.63;0.63;;;7.50;99.90;;;;;;5079939;28;20452;-80
2024/01/04 02:36:35;;;;;;;1.00;0.90;;;7.50;99.90;;;;;;5078279;28;20432;-80
2024/01/04 02:42:15;;;;;;;1.00;0.77;;;7.50;99.90;;;;;;5077567;28;20476;-79
2024/01/04 02:44:58;;;;;;;0.90;0.90;;;7.50;99.90;;;;;;5078470;28;20497;-80
2024/01/04 02:47:41;;;;;;;0.53;0.53;;;7.40;99.90;;;;;;5077582;28;20465;-79
2024/01/04 02:50:15;;;;;;;0.50;0.50;;;7.40;99.90;;;;;;5078396;28;20467;-80
2024/01/04 02:52:56;;;;;;;0.50;0.50;;;7.60;99.90;;;;;;5078147;28;20473;-79
2024/01/04 02:55:41;;;;;;;0.60;0.60;;;7.40;99.90;;;;;;5080773;28;20452;-79
2024/01/04 02:58:15;;;;;;;0.60;0.60;;;7.40;99.90;;;;;;5082907;28;21010;-79
2024/01/04 03:00:50;;;;;;;1.53;0.63;;;7.40;99.90;;;;;;5084373;28;20477;-79
2024/01/04 03:03:35;;;;;;;0.73;0.73;;;7.40;99.90;;;;;;5084115;28;20433;-79
2024/01/04 03:06:15;;;;;;;0.77;0.70;;;7.30;99.90;;;;;;5083218;28;20450;-78
2024/01/04 03:08:53;;;;;;;0.50;0.50;;;7.30;99.90;;;;;;5081650;28;20484;-79
2024/01/04 03:11:29;;;;;;;0.67;0.60;;;7.40;99.90;;;;;;5079874;28;20472;-78
2024/01/04 03:14:16;;;;;;;0.50;0.50;;;7.40;99.90;;;;;;5080933;28;20448;-79
2024/01/04 03:17:09;;;;;;;0.70;0.70;;;7.40;99.90;;;;;;5080534;28;20541;-79
2024/01/04 03:20:06;;;;;;;0.50;0.50;;;7.40;99.90;;;;;;5080925;28;20571;-79
2024/01/04 03:22:53;;;;;;;0.83;0.60;;;7.40;99.90;;;;;;5081517;28;20464;-79
2024/01/04 03:25:36;;;;;;;2.93;0.63;;;7.40;99.90;;;;;;5081844;28;20459;-78
2024/01/04 03:28:30;;;;;;;1.93;0.77;;;7.40;99.90;;;;;;5082595;28;20560;-79
2024/01/04 03:31:23;;;;;;;0.60;0.60;;;7.40;99.90;;;;;;5080506;28;20480;-79
2024/01/04 03:34:22;;;;;;;0.70;0.70;;;7.40;99.90;;;;;;5080624;28;20465;-79
2024/01/04 03:39:53;;;;;;;0.67;0.67;;;7.30;99.90;;;;;;5082782;28;20504;-80
2024/01/04 03:42:33;;;;;;;0.70;0.70;;;7.10;99.90;;;;;;5085310;28;20472;-78
2024/01/04 03:45:13;;;;;;;0.83;0.60;;;7.30;99.90;;;;;;5084998;28;20454;-81
2024/01/04 03:51:02;;;;;;;0.67;0.67;;;7.30;99.90;;;;;;5083646;28;20436;-78
2024/01/04 03:53:47;;;;;;;1.00;0.80;;;7.30;99.90;;;;;;5083540;28;21014;-79
2024/01/04 03:59:42;;;;;;;2.10;0.70;;;7.40;99.90;;;;;;5064457;28;20457;-79
2024/01/04 04:02:27;;;;;;;1.17;1.00;;;7.40;99.90;;;;;;5079761;28;20461;-79
2024/01/04 04:05:09;;;;;;;1.03;0.70;;;7.40;99.90;;;;;;5078622;28;20452;-79
2024/01/04 04:07:54;;;;;;;0.70;0.70;;;7.40;99.90;;;;;;5078897;28;21021;-80
2024/01/04 04:10:43;;;;;;;1.10;1.10;;;7.40;99.90;;;;;;5079707;28;20538;-80
2024/01/04 04:13:30;;;;;;;2.77;0.90;;;7.40;99.90;;;;;;5079648;28;20449;-80
2024/01/04 04:16:04;;;;;;;1.00;0.97;;;7.50;99.90;;;;;;5080053;28;20456;-80
2024/01/04 04:18:51;;;;;;;0.83;0.80;;;7.50;99.90;;;;;;5078853;28;20447;-79
2024/01/04 04:21:43;;;;;;;0.67;0.67;;;7.50;99.90;;;;;;5078740;28;20474;-79
2024/01/04 04:24:27;;;;;;;1.30;1.10;;;7.70;99.90;;;;;;5078973;28;20455;-79
2024/01/04 04:27:33;;;;;;;2.57;0.80;;;7.60;99.90;;;;;;5078345;28;20462;-80
2024/01/04 04:30:32;;;;;;;1.67;0.93;;;7.40;99.90;;;;;;5066645;28;20483;-80
2024/01/04 04:36:27;;;;;;;0.87;0.87;;;7.80;99.90;;;;;;5096402;28;20433;-80
2024/01/04 04:39:10;;;;;;;2.50;1.00;;;7.80;99.90;;;;;;5079003;28;20437;-80
2024/01/04 04:42:00;;;;;;;1.23;0.90;;;7.60;99.90;;;;;;5078926;28;20526;-77
2024/01/04 04:47:38;;;;;;;4.33;1.40;;;8.00;99.90;;;;;;5071687;28;20481;-79
2024/01/04 04:50:34;;;;;;;2.30;1.10;;;8.00;99.90;;;;;;5081369;28;20516;-79
2024/01/04 04:53:45;;;;;;;1.13;0.90;;;8.00;99.90;;;;;;5103784;28;20468;-80
2024/01/04 04:56:39;;;;;;;1.90;1.20;;;8.00;99.90;;;;;;5104227;28;20449;-79
2024/01/04 04:59:21;;;;;;;1.40;1.30;;;8.20;99.90;;;;;;5101918;28;20465;-79
2024/01/04 05:02:10;;;;;;;2.20;1.30;;;8.20;99.90;;;;;;5103719;28;20468;-79
2024/01/04 05:04:57;;;;;;;2.10;1.23;;;8.20;99.90;;;;;;5102514;28;20441;-78
2024/01/04 05:08:22;;;;;;;2.20;1.13;;;8.20;99.90;;;;;;5083293;28;20472;-79
2024/01/04 05:16:55;;;;;;;4.27;1.13;;;8.20;99.90;;;;;;5069446;28;20454;-80
2024/01/04 05:23:26;;;;;;;2.53;0.90;;;8.20;99.90;;;;;;5080762;28;20809;-79
2024/01/04 05:26:10;;;;;;;8.33;1.20;;;8.20;99.90;;;;;;5046214;28;20456;-80
2024/01/04 05:28:59;;;;;;;1.63;0.90;;;8.20;99.90;;;;;;5084450;28;20545;-79
2024/01/04 05:31:47;;;;;;;1.73;1.10;;;8.10;99.90;;;;;;5079399;28;20470;-79
2024/01/04 05:34:36;;;;;;;1.90;0.93;;;8.10;99.90;;;;;;5081080;28;20449;-79
2024/01/04 05:40:09;;;;;;;2.70;0.80;;;8.20;99.90;;;;;;5081760;28;20475;-79
2024/01/04 05:42:57;;;;;;;;;;;;;;;;;;;;;
2024/01/04 05:45:47;;;;;;;3.13;0.77;;;8.10;99.90;;;;;;5083119;28;20493;-79
2024/01/04 05:48:18;;;;;;;3.17;0.80;;;8.30;99.90;;;;;;5082269;28;20479;-79
2024/01/04 05:50:58;;;;;;;2.07;0.93;;;8.40;99.90;;;;;;5081933;28;20452;-80
2024/01/04 05:53:48;;;;;;;1.03;1.03;;;8.30;99.90;;;;;;5080921;28;20435;-79
2024/01/04 05:56:30;;;;;;;2.40;1.27;;;8.30;99.90;;;;;;5081485;28;20866;-79
2024/01/04 05:59:06;;;;;;;1.83;1.40;;;8.30;99.90;;;;;;5082774;28;20458;-80
2024/01/04 06:01:46;;;;;;;2.00;1.07;;;8.50;99.90;;;;;;5082718;28;20499;-79
2024/01/04 06:07:32;;;;;;;0.90;0.90;;;8.00;99.90;;;;;;5079946;28;20444;-79
2024/01/04 06:10:09;;;;;;;1.70;1.00;;;8.30;99.90;;;;;;5078773;28;20451;-80
2024/01/04 06:12:48;;;;;;;1.33;0.83;;;8.20;99.90;;;;;;5077538;28;20468;-79
2024/01/04 06:15:36;;;;;;;1.40;0.90;;;8.30;99.90;;;;;;5076888;28;20443;-79
2024/01/04 06:18:16;;;;;;;2.53;1.20;;;8.50;99.90;;;;;;5075866;28;20437;-79
2024/01/04 06:20:46;;;;;;;2.40;1.00;;;8.30;99.90;;;;;;5077064;28;20500;-80
2024/01/04 06:23:29;;;;;;;2.90;0.93;;;8.30;99.90;;;;;;5076465;28;20514;-81
2024/01/04 06:26:20;;;;;;;2.10;1.10;;;8.40;99.90;;;;;;5077516;28;20441;-81
2024/01/04 06:31:47;;;;;;;2.07;1.10;;;8.50;99.90;;;;;;5080623;28;20459;-80
2024/01/04 06:34:20;;;;;;;2.73;1.30;;;8.50;99.90;;;;;;5082805;28;20505;-79
2024/01/04 06:37:11;;;;;;;2.80;1.17;;;8.50;99.90;;;;;;5083069;28;20427;-79
2024/01/04 06:40:00;;;;;;;2.33;0.90;;;8.50;99.90;;;;;;5078392;28;20442;-79
2024/01/04 06:42:57;;;;;;;1.67;1.10;;;8.60;99.90;;;;;;5077955;28;20497;-78
2024/01/04 06:48:27;;;;;;;2.13;1.00;;;8.60;99.90;;;;;;5079018;28;20988;-80
2024/01/04 06:51:03;;;;;;;2.80;1.17;;;8.30;99.90;;;;;;5077949;28;20470;-80
2024/01/04 06:53:40;;;;;;;1.43;1.30;;;8.40;99.90;;;;;;5077146;28;20441;-79
2024/01/04 06:56:21;;;;;;;2.00;1.20;;;8.30;99.90;;;;;;5079845;28;20538;-79
2024/01/04 06:59:01;;;;;;;1.77;1.50;;;8.30;99.90;;;;;;5078338;28;20495;-79
2024/01/04 07:01:48;;;;;;;1.43;0.90;;;8.40;99.90;;;;;;5078088;28;20526;-79
2024/01/04 07:04:23;;;;;;;1.80;1.10;;;8.40;99.90;;;;;;5077400;28;20448;-81
2024/01/04 07:07:12;;;;;;;2.70;1.13;;;8.60;99.90;;;;;;5078270;28;20431;-79
2024/01/04 07:09:45;;;;;;;2.20;1.23;;;8.40;99.90;;;;;;5078879;28;20496;-78
2024/01/04 07:12:28;;;;;;;1.90;1.30;;;8.40;99.90;;;;;;5082188;28;20808;-80
2024/01/04 07:15:05;;;;;;;1.80;1.20;;;8.50;99.90;;;;;;5078576;28;20481;-81
2024/01/04 07:17:54;;;;;;;5.13;1.07;;;8.50;99.90;;;;;;5077067;28;20732;-79
2024/01/04 07:20:29;;;;;;;2.30;1.20;;;8.40;99.90;;;;;;5080000;28;20520;-81
2024/01/04 07:23:05;;;;;;;2.33;1.60;;;8.70;99.90;;;;;;5080126;28;20472;-79
2024/01/04 07:25:44;;;;;;;3.77;1.30;;;8.60;99.90;;;;;;5081061;28;20466;-79
2024/01/04 07:28:20;;;;;;;2.90;1.20;;;8.60;99.90;;;;;;5080831;28;20480;-79
2024/01/04 07:30:59;;;;;;;1.00;0.90;;;8.40;99.90;;;;;;5080193;28;20478;-78
2024/01/04 07:33:34;;;;;;;1.17;1.07;;;8.30;99.90;;;;;;5080183;28;20462;-80
2024/01/04 07:36:09;;;;;;;3.40;1.30;;;8.20;99.90;;;;;;5080275;28;20456;-78
2024/01/04 07:38:41;;;;;;;1.00;1.00;;;8.30;99.90;;;;;;5080583;28;20455;-80
2024/01/04 07:41:11;;;;;;;3.37;1.33;;;8.20;99.90;;;;;;5079998;28;20552;-79
2024/01/04 07:43:47;;;;;;;3.43;1.03;;;8.10;99.90;;;;;;5079481;28;20459;-79
2024/01/04 07:46:23;;;;;;;3.03;1.03;;;8.10;99.90;;;;;;5077052;28;20453;-79
2024/01/04 07:48:56;;;;;;;2.67;1.20;;;8.00;99.90;;;;;;5075415;28;20479;-80
2024/01/04 07:51:30;;;;;;;1.67;1.57;;;7.60;99.90;;;;;;5075229;28;20529;-81
2024/01/04 07:54:06;;;;;;;0.90;0.90;;;7.90;99.90;;;;;;5075416;28;20480;-80
2024/01/04 07:56:38;;;;;;;2.70;1.20;;;7.90;99.90;;;;;;5075266;28;20502;-81
2024/01/04 07:59:25;;;;;;;1.30;1.20;;;7.90;99.90;;;;;;5075139;28;20450;-79
2024/01/04 08:02:25;;;;;;;0.80;0.80;;;7.60;99.90;;;;;;5074869;28;20465;-80
2024/01/04 08:05:04;;;;;;;1.40;1.10;;;7.80;99.90;;;;;;5079975;28;20544;-80
2024/01/04 08:07:37;;;;;;;1.43;1.33;;;7.80;99.90;;;;;;5098110;28;20435;-80
2024/01/04 08:10:22;;;;;;;1.27;1.03;;;7.80;99.90;;;;;;5095793;28;20479;-80
2024/01/04 08:13:08;;;;;;;1.73;1.10;;;7.90;99.90;;;;;;5095637;28;20472;-79
2024/01/04 08:16:01;;;;;;;2.70;1.40;;;7.90;99.90;;;;;;5098258;28;20480;-79
2024/01/04 08:18:46;;;;;;;3.50;1.00;;;7.90;99.90;;;;;;5097163;28;20447;-79
2024/01/04 08:21:22;;;;;;;1.53;1.40;;;8.10;99.90;;;;;;5095665;28;20468;-79
2024/01/04 08:24:13;;;;;;;4.30;1.00;;;8.00;99.90;;;;;;5097115;28;20453;-78
2024/01/04 08:26:56;;;;;;;1.83;1.33;;;8.10;99.90;;;;;;5098456;28;20459;-80
2024/01/04 08:29:27;;;;;;;4.57;1.20;;;8.30;99.90;;;;;;5098681;28;20854;-80
2024/01/04 08:32:00;;;;;;;1.70;1.30;;;8.20;99.90;;;;;;5100249;28;21099;-78
2024/01/04 08:34:55;;;;;;;1.50;1.40;;;8.30;99.90;;;;;;5098613;28;20459;-82
2024/01/04 08:37:29;;;;;;;1.70;1.17;;;8.00;99.90;;;;;;5098367;28;20602;-80
2024/01/04 08:40:06;;;;;;;2.53;1.63;;;8.40;99.90;;;;;;5097753;28;20520;-81
2024/01/04 08:42:48;;;;;;;2.43;1.20;;;8.30;99.90;;;;;;5097538;28;20479;-80
2024/01/04 08:45:26;;;;;;;2.67;1.20;;;8.60;99.90;;;;;;5096313;28;20449;-80
2024/01/04 08:48:03;;;;;;;3.43;1.57;;;8.70;99.90;;;;;;5096047;28;20507;-79
2024/01/04 08:50:37;;;;;;;2.13;1.17;;;8.90;99.90;;;;;;5098031;28;20515;-80
2024/01/04 08:53:20;;;;;;;5.23;1.37;;;9.10;99.90;;;;;;5098734;28;20448;-79
2024/01/04 08:56:08;;;;;;;3.57;1.30;;;9.20;99.90;;;;;;5100206;28;20436;-79
2024/01/04 08:58:51;;;;;;;2.33;1.50;;;9.30;99.90;;;;;;5097038;28;20448;-79
2024/01/04 09:01:39;;;;;;;3.93;1.40;;;9.20;99.90;;;;;;5095753;28;20476;-79
2024/01/04 09:04:20;;;;;;;6.50;1.90;;;9.20;99.90;;;;;;5095563;28;20458;-80
2024/01/04 09:07:07;;;;;;;3.53;1.50;;;9.20;99.90;;;;;;5095269;28;20456;-79
2024/01/04 09:09:57;;;;;;;4.47;1.73;;;8.90;99.90;;;;;;5099046;28;20524;-79
2024/01/04 09:12:34;;;;;;;5.70;1.70;;;9.20;99.90;;;;;;5099577;28;21045;-79
2024/01/04 09:15:19;;;;;;;5.70;1.30;;;9.20;99.90;;;;;;5098821;28;20427;-82
2024/01/04 09:18:01;;;;;;;1.90;1.50;;;9.10;99.90;;;;;;5098636;28;20862;-83
2024/01/04 09:20:40;;;;;;;2.23;1.13;;;9.10;99.90;;;;;;5098102;28;20458;-80
2024/01/04 09:23:27;;;;;;;1.93;1.20;;;9.30;99.90;;;;;;5098482;28;20459;-79
2024/01/04 09:26:15;;;;;;;3.07;1.60;;;9.20;99.90;;;;;;5097936;28;20442;-80
2024/01/04 09:28:57;;;;;;;1.47;1.10;;;9.30;99.90;;;;;;5097465;28;20500;-80
2024/01/04 09:31:36;;;;;;;3.13;1.37;;;9.50;99.90;;;;;;5097126;28;20987;-81
2024/01/04 09:34:11;;;;;;;2.40;1.10;;;9.70;99.90;;;;;;5098157;28;20811;-80
2024/01/04 09:36:52;;;;;;;2.50;1.23;;;9.80;99.90;;;;;;5096055;28;20464;-79
2024/01/04 09:39:30;;;;;;;2.80;1.30;;;9.80;99.90;;;;;;5097134;28;20448;-80
2024/01/04 09:42:09;;;;;;;3.60;1.10;;;9.70;99.90;;;;;;5097386;28;20500;-80
2024/01/04 09:44:51;;;;;;;7.30;1.40;;;10.10;99.90;;;;;;5096629;28;20532;-78
2024/01/04 09:47:33;;;;;;;3.10;1.13;;;10.20;99.90;;;;;;5097897;28;20451;-79
2024/01/04 09:50:11;;;;;;;2.93;1.30;;;10.00;99.90;;;;;;5097900;28;20927;-79
2024/01/04 09:52:56;;;;;;;1.57;1.00;;;10.00;99.90;;;;;;5097986;28;20459;-80
2024/01/04 09:55:27;;;;;;;3.03;1.00;;;10.00;99.90;;;;;;5097028;28;20451;-80
2024/01/04 09:58:16;;;;;;;2.40;1.20;;;10.00;99.90;;;;;;5098057;28;20451;-79
2024/01/04 10:00:56;;;;;;;2.07;1.03;;;10.10;99.90;;;;;;5098211;28;20446;-80
2024/01/04 10:03:54;;;;;;;1.93;1.27;;;9.90;99.90;;;;;;5098056;28;20458;-80
2024/01/04 10:06:34;;;;;;;1.33;1.23;;;9.90;99.90;;;;;;5080497;28;20452;-78
2024/01/04 10:09:25;;;;;;;1.43;1.10;;;9.50;99.90;;;;;;5076404;28;20478;-80
2024/01/04 10:12:08;;;;;;;2.10;1.33;;;9.70;99.90;;;;;;5074398;28;20475;-79
2024/01/04 10:14:46;;;;;;;2.70;1.37;;;9.60;99.90;;;;;;5073831;28;20451;-79
2024/01/04 10:20:59;;;;;;;4.37;1.33;;;9.70;99.90;;;;;;5065877;28;20453;-80
2024/01/04 10:23:39;;;;;;;5.30;1.33;;;9.80;99.90;;;;;;5073030;28;20436;-79
2024/01/04 10:26:26;;;;;;;1.97;1.20;;;9.60;99.90;;;;;;5073119;28;20467;-80
2024/01/04 10:29:06;;;;;;;2.17;1.30;;;9.50;99.90;;;;;;5074957;28;20563;-79
2024/01/04 10:34:33;;;;;;;2.00;1.20;;;9.20;99.90;;;;;;5062619;28;20938;-79
2024/01/04 10:37:25;;;;;;;2.17;1.33;;;9.10;99.90;;;;;;5073291;28;20449;-79
2024/01/04 10:40:36;;;;;;;3.30;1.40;;;9.20;99.90;;;;;;5073849;28;20444;-80
2024/01/04 10:43:33;;;;;;;5.47;1.40;;;8.90;99.90;;;;;;5085974;28;20535;-82
2024/01/04 10:46:22;;;;;;;2.00;1.10;;;8.90;99.90;;;;;;5097289;28;20440;-80
2024/01/04 10:52:01;;;;;;;6.17;1.63;;;8.70;99.90;;;;;;5089822;28;20520;-80
2024/01/04 10:54:47;;;;;;;2.70;1.30;;;8.70;99.90;;;;;;5084957;28;20477;-81
2024/01/04 10:57:37;;;;;;;3.83;1.23;;;8.70;99.90;;;;;;5107162;28;20466;-80
2024/01/04 11:00:16;;;;;;;3.23;1.13;;;9.00;99.90;;;;;;5107486;28;20436;-80
2024/01/04 11:02:53;;;;;;;1.50;1.03;;;8.80;99.90;;;;;;5104178;28;20497;-79
2024/01/04 11:05:33;;;;;;;2.30;1.50;;;9.00;99.90;;;;;;5084638;28;20497;-79
2024/01/04 11:08:09;;;;;;;0.97;0.70;;;9.30;99.90;;;;;;5096436;28;20515;-81
2024/01/04 11:10:52;;;;;;;2.90;0.87;;;9.20;99.90;;;;;;5099462;28;20475;-81
2024/01/04 11:13:23;;;;;;;1.20;0.90;;;9.20;99.90;;;;;;5095766;28;20436;-80
2024/01/04 11:15:58;;;;;;;0.87;0.87;;;9.10;99.90;;;;;;5101186;28;20452;-78
2024/01/04 11:18:48;;;;;;;0.90;0.90;;;9.10;99.90;;;;;;5097615;28;20450;-81
2024/01/04 11:21:43;;;;;;;0.83;0.70;;;9.10;99.90;;;;;;5094486;28;20460;-80
2024/01/04 11:24:32;;;;;;;1.60;1.50;;;9.10;99.90;;;;;;5100647;28;20446;-78
2024/01/04 11:30:00;;;;;;;1.87;1.27;;;9.10;99.90;;;;;;5102431;28;20471;-80
2024/01/04 11:32:44;;;;;;;0.97;0.97;;;9.20;99.90;;;;;;5084575;28;20481;-79
2024/01/04 11:35:29;;;;;;;3.93;1.00;;;9.30;99.90;;;;;;5097197;28;20554;-80
2024/01/04 11:38:07;;;;;;;0.70;0.67;;;9.50;99.90;;;;;;5084795;28;20448;-79
2024/01/04 11:40:54;;;;;;;0.70;0.70;;;9.20;99.90;;;;;;5086324;28;20483;-78
2024/01/04 11:44:01;;;;;;;1.67;1.30;;;9.10;99.90;;;;;;5095233;28;20460;-78
2024/01/04 11:49:39;;;;;;;0.80;0.80;;;9.20;99.90;;;;;;5084248;28;20968;-82
2024/01/04 11:57:57;;;;;;;0.70;0.63;;;8.70;99.90;;;;;;5082050;28;20419;-80
2024/01/04 12:00:39;;;;;;;1.13;0.90;;;8.50;99.90;;;;;;5096406;28;20440;-81
2024/01/04 12:03:36;;;;;;;2.27;0.90;;;8.50;99.90;;;;;;5085876;28;20452;-80
2024/01/04 12:06:29;;;;;;;1.33;0.90;;;8.50;99.90;;;;;;5088643;28;20433;-80
2024/01/04 12:09:10;;;;;;;1.60;1.00;;;8.70;99.90;;;;;;5090887;28;20431;-79
2024/01/04 12:11:58;;;;;;;1.73;1.10;;;8.70;99.90;;;;;;5082867;28;20555;-81
2024/01/04 12:14:39;;;;;;;1.50;0.90;;;8.70;99.90;;;;;;5097265;28;20446;-79
2024/01/04 12:18:00;;;;;;;1.33;1.20;;;8.80;99.90;;;;;;5085027;28;20461;-81
2024/01/04 12:20:47;;;;;;;;;;;;;;;;;;;;;
2024/01/04 12:23:52;;;;;;;3.57;1.10;;;9.10;99.90;;;;;;5090968;28;20436;-81
2024/01/04 12:26:39;;;;;;;1.90;1.00;;;9.20;99.90;;;;;;5087457;28;20443;-78
2024/01/04 12:29:34;;;;;;;1.03;0.97;;;9.00;99.90;;;;;;5089942;28;20443;-81
2024/01/04 12:32:17;;;;;;;4.37;1.20;;;9.30;99.90;;;;;;5084824;28;20477;-81
2024/01/04 12:34:49;;;;;;;1.20;1.10;;;9.40;99.90;;;;;;5085690;28;20550;-80
2024/01/04 12:37:38;;;;;;;4.13;1.13;;;9.40;99.90;;;;;;5091295;28;20472;-81
2024/01/04 12:40:10;;;;;;;2.50;1.20;;;9.70;99.90;;;;;;5084679;28;20529;-80
2024/01/04 12:45:53;;;;;;;4.17;1.63;;;9.60;99.90;;;;;;5082841;28;20431;-81
2024/01/04 12:48:53;;;;;;;2.97;1.10;;;9.60;99.90;;;;;;5087517;28;20439;-80
2024/01/04 12:51:35;;;;;;;4.53;1.20;;;9.70;99.90;;;;;;5092031;28;20485;-81
2024/01/04 12:57:38;;;;;;;2.00;1.37;;;9.80;99.90;;;;;;5089265;28;20412;-80
2024/01/04 13:03:57;;;;;;;2.00;1.40;;;10.10;99.90;;;;;;5081077;28;20426;-80
2024/01/04 13:06:38;;;;;;;2.30;1.80;;;10.00;99.90;;;;;;5097317;28;20485;-80
2024/01/04 13:09:16;;;;;;;3.70;1.57;;;10.10;99.90;;;;;;5091418;28;20447;-79
2024/01/04 13:11:46;;;;;;;2.87;1.30;;;10.00;99.90;;;;;;5092933;28;20483;-81
2024/01/04 13:14:32;;;;;;;;;;;;;;;;;;;;;
2024/01/04 13:17:05;;;;;;;6.23;1.27;;;9.90;99.90;;;;;;5105348;28;20439;-81
2024/01/04 13:23:12;;;;;;;3.73;1.10;;;9.90;99.90;;;;;;5124245;22;20546;-83
2024/01/04 13:25:42;;;;;;;2.60;1.30;;;9.60;99.90;;;;;;5111487;28;20445;-79
2024/01/04 13:28:23;;;;;;;5.30;1.20;;;9.90;99.90;;;;;;5116697;28;20534;-80
2024/01/04 13:30:56;;;;;;;3.80;1.17;;;9.70;99.90;;;;;;5118010;27;20770;-80
2024/01/04 13:33:33;;;;;;;4.93;1.50;;;9.40;99.90;;;;;;5127541;27;21014;-79
2024/01/04 13:36:13;;;;;;;5.80;1.63;;;9.70;99.90;;;;;;5120036;27;20453;-81
2024/01/04 13:39:08;;;;;;;3.13;1.53;;;9.60;99.90;;;;;;5125977;27;20480;-82
2024/01/04 13:45:05;;;;;;;3.00;1.63;;;9.60;99.90;;;;;;5119656;27;20521;-79
2024/01/04 13:47:46;;;;;;;3.90;1.77;;;9.60;99.90;;;;;;5130368;27;20824;-79
2024/01/04 13:50:27;;;;;;;2.60;1.73;;;9.60;99.90;;;;;;5116071;28;20503;-79
2024/01/04 13:53:14;;;;;;;8.07;1.80;;;9.40;99.90;;;;;;5134780;27;20449;-78
2024/01/04 13:55:56;;;;;;;4.30;1.57;;;9.70;99.90;;;;;;5134115;27;20442;-78
2024/01/04 13:58:44;;;;;;;3.37;1.27;;;9.70;99.90;;;;;;5121536;27;20468;-81
2024/01/04 14:01:28;;;;;;;7.23;1.93;;;9.70;99.90;;;;;;5115292;28;20747;-79
2024/01/04 14:04:02;;;;;;;4.03;1.57;;;9.40;99.90;;;;;;5115568;28;20464;-79
2024/01/04 14:06:57;;;;;;;4.70;1.67;;;9.60;99.90;;;;;;5115488;28;20485;-78
2024/01/04 14:09:39;;;;;;;3.37;1.20;;;9.60;99.90;;;;;;5098055;27;20465;-80
2024/01/04 14:12:20;;;;;;;1.90;1.33;;;9.80;99.90;;;;;;5125223;27;20482;-80
2024/01/04 14:14:52;;;;;;;2.77;1.30;;;9.60;99.90;;;;;;5132354;27;20473;-78
2024/01/04 14:17:41;;;;;;;3.13;1.40;;;9.60;99.90;;;;;;5121513;27;20443;-80
2024/01/04 14:20:20;;;;;;;2.60;1.20;;;9.70;99.90;;;;;;5136247;27;20533;-80
2024/01/04 14:23:04;;;;;;;5.40;1.63;;;9.60;99.90;;;;;;5116544;28;20467;-79
2024/01/04 14:25:39;;;;;;;2.83;1.10;;;9.70;99.90;;;;;;5123294;28;20475;-80
2024/01/04 14:28:10;;;;;;;2.53;1.20;;;9.70;99.90;;;;;;5125553;28;20434;-80
2024/01/04 14:30:49;;;;;;;2.00;1.30;;;9.70;99.90;;;;;;5132593;28;20462;-82
2024/01/04 14:33:39;;;;;;;1.33;1.13;;;9.70;99.90;;;;;;5131932;28;20442;-78
2024/01/04 14:36:21;;;;;;;3.33;1.63;;;9.80;99.90;;;;;;5134020;28;20542;-80
2024/01/04 14:39:11;;;;;;;5.30;1.77;;;9.80;99.90;;;;;;5141606;28;20449;-80
2024/01/04 14:41:57;;;;;;;3.77;1.60;;;9.90;99.90;;;;;;5142437;28;20466;-80
2024/01/04 14:44:55;;;;;;;1.70;1.40;;;9.90;99.90;;;;;;5141131;28;20449;-80
2024/01/04 14:47:30;;;;;;;3.77;1.50;;;9.90;99.90;;;;;;5139856;28;20450;-80
2024/01/04 14:50:16;;;;;;;1.37;1.27;;;9.60;99.90;;;;;;5140209;27;20524;-78
2024/01/04 14:52:54;;;;;;;5.23;2.07;;;9.80;99.90;;;;;;5144136;27;20469;-80
2024/01/04 14:55:32;;;;;;;2.13;1.10;;;9.90;99.90;;;;;;5144110;27;20438;-79
2024/01/04 14:58:06;;;;;;;4.17;1.30;;;9.60;99.90;;;;;;5142618;27;20442;-80
2024/01/04 15:00:51;;;;;;;2.90;1.30;;;9.50;99.90;;;;;;5141880;27;20845;-79
2024/01/04 15:03:25;;;;;;;2.80;1.60;;;9.70;99.90;;;;;;5140739;27;20445;-81
2024/01/04 15:05:59;;;;;;;2.70;1.13;;;9.70;99.90;;;;;;5141862;27;20473;-79
2024/01/04 15:08:38;;;;;;;2.97;1.30;;;9.70;99.90;;;;;;5141685;27;20541;-81
2024/01/04 15:11:10;;;;;;;2.40;1.47;;;9.70;99.90;;;;;;5140662;27;20477;-79
2024/01/04 15:13:57;;;;;;;3.10;1.33;;;9.60;99.90;;;;;;5137885;27;20478;-79
2024/01/04 15:16:40;;;;;;;1.60;1.17;;;9.60;99.90;;;;;;5141272;27;20605;-79
2024/01/04 15:19:19;;;;;;;2.13;1.30;;;9.50;99.90;;;;;;5142244;27;20467;-81
2024/01/04 15:21:48;;;;;;;5.40;1.33;;;9.20;99.90;;;;;;5141711;27;20539;-78
2024/01/04 15:24:26;;;;;;;2.50;1.57;;;9.50;99.90;;;;;;5141941;27;20445;-81
2024/01/04 15:27:05;;;;;;;2.07;1.50;;;9.40;99.90;;;;;;5140828;27;20437;-80
2024/01/04 15:29:43;;;;;;;2.33;1.13;;;9.40;99.90;;;;;;5140490;27;20457;-78
2024/01/04 15:32:23;;;;;;;2.70;1.90;;;9.30;99.90;;;;;;5139726;27;20481;-79
2024/01/04 15:35:20;;;;;;;2.23;1.20;;;9.20;99.90;;;;;;5140896;27;20525;-80
2024/01/04 15:37:53;;;;;;;1.20;1.10;;;8.90;99.90;;;;;;5121479;27;20820;-81
2024/01/04 15:40:33;;;;;;;3.23;1.20;;;9.10;99.90;;;;;;5141152;27;20446;-81
2024/01/04 15:43:12;;;;;;;1.63;1.13;;;9.10;99.90;;;;;;5141858;27;20457;-83
2024/01/04 15:45:49;;;;;;;1.00;1.00;;;9.00;99.90;;;;;;5141995;27;20449;-80